Svyataya Anna — UUCV — position and weather

sailwx.info

Track history (hours):
 
Tides and Currents Weather Stations Pressure Air Temp Water Temp Dewpoint Dewpoint Depression Visibility Wind Speed Wind Dir Waves Ship Positions

Svyataya Anna

Last reported at 2017-Sep-25 11:30 UTC. Time now 2017-Sep-25 11:52 UTC.
Position N 46°50' E 031°57'.

Length 93 m; draft 3.3 m.

Type: Cargo ship. MMSI: 272068800.

Date/timePositionNaut miles runAvg speedWind from/ knotsBaromVisibWave heightAir tempDewpointWater temp
2017-Sep-25 11:30N 46°50' E 031°57'0 0.0
2017-Sep-25 11:00N 46°50' E 031°57'0 0.0
2017-Sep-25 10:30N 46°50' E 031°57'0 0.0
2017-Sep-25 10:00N 46°50' E 031°57'0 0.0
2017-Sep-25 09:30N 46°50' E 031°57'0 0.0
2017-Sep-25 09:00N 46°50' E 031°57'0 0.0
2017-Sep-25 08:30N 46°50' E 031°57'0 0.0
2017-Sep-25 08:00N 46°50' E 031°57'0 0.0
2017-Sep-25 07:30N 46°50' E 031°57'0 0.0
2017-Sep-25 07:00N 46°50' E 031°57'0 0.0
2017-Sep-25 06:30N 46°50' E 031°57'0 0.0
2017-Sep-25 06:00N 46°50' E 031°57'0 0.0
2017-Sep-25 05:30N 46°50' E 031°57'0 0.0
2017-Sep-25 05:00N 46°50' E 031°57'0 0.0
2017-Sep-25 04:30N 46°50' E 031°57'0 0.0
2017-Sep-25 04:00N 46°50' E 031°57'0 0.7
2017-Sep-25 03:30N 46°50' E 031°57'1 1.0
2017-Sep-25 03:00N 46°50' E 031°56'0 0.6
2017-Sep-25 02:30N 46°50' E 031°56'2 3.1
2017-Sep-25 02:00N 46°49' E 031°54'2 3.1
2017-Sep-25 01:30N 46°48' E 031°53'2 3.1
2017-Sep-25 01:00N 46°46' E 031°53'1 2.7
2017-Sep-25 00:30N 46°45' E 031°54'1 2.7
2017-Sep-25 00:00N 46°44' E 031°56'1 2.3
2017-Sep-24 23:30N 46°43' E 031°56'1 2.8
2017-Sep-24 23:00N 46°41' E 031°56'2 3.2
2017-Sep-24 22:30N 46°40' E 031°56'2 3.1
2017-Sep-24 22:00N 46°38' E 031°57'2 3.3
2017-Sep-24 21:30N 46°37' E 031°58'2 3.4
2017-Sep-24 21:00N 46°36' E 032°00'2 3.6
2017-Sep-24 20:27N 46°34' E 032°02'  
2017-Sep-19 10:16N 48°04' E 035°05'2 6.0
2017-Sep-19 10:00N 48°02' E 035°07'3 5.3
2017-Sep-19 09:30N 47°60' E 035°08'3 5.7
2017-Sep-19 09:00N 47°57' E 035°07'3 5.5
2017-Sep-19 08:30N 47°54' E 035°07'3 5.2
2017-Sep-19 08:00N 47°52' E 035°06'0 0.1
2017-Sep-19 07:30N 47°52' E 035°05'0 0.2
2017-Sep-19 07:00N 47°52' E 035°05'2 3.7
2017-Sep-19 06:30N 47°50' E 035°06'3 5.0
2017-Sep-19 06:00N 47°48' E 035°09'0 0.0
2017-Sep-19 05:30N 47°48' E 035°09'0 0.0
2017-Sep-19 05:00N 47°48' E 035°09'0 0.0
2017-Sep-19 04:30N 47°48' E 035°09'0 0.0
2017-Sep-19 04:00N 47°48' E 035°09'0 0.0
2017-Sep-19 03:30N 47°48' E 035°09'0 0.0
2017-Sep-19 03:00N 47°48' E 035°09'0 0.0
2017-Sep-19 02:30N 47°48' E 035°09'0 0.0
2017-Sep-19 02:00N 47°48' E 035°09'0 0.0
2017-Sep-19 01:30N 47°48' E 035°09'0 0.0
2017-Sep-19 01:00N 47°48' E 035°09'0 0.0
2017-Sep-19 00:30N 47°48' E 035°09'1 1.1
2017-Sep-19 00:00N 47°48' E 035°10'3 5.2
2017-Sep-18 23:30N 47°45' E 035°10'2 4.9
2017-Sep-18 23:00N 47°43' E 035°09'3 5.2
2017-Sep-18 22:30N 47°41' E 035°07'3 5.4
2017-Sep-18 22:00N 47°38' E 035°06'3 5.8
2017-Sep-18 21:30N 47°36' E 035°03'80 5.0
2017-Sep-18 05:27N 46°49' E 033°27'2 5.2
2017-Sep-18 05:00N 46°48' E 033°24'5 1.7
2017-Sep-18 02:09N 46°45' E 033°18'1 4.6
2017-Sep-18 01:59N 46°45' E 033°17'3 5.4
2017-Sep-18 01:30N 46°46' E 033°14'53 3.9
2017-Sep-17 12:01N 46°33' E 031°59'0 6.2
2017-Sep-17 12:00N 46°33' E 031°59'3 6.1
2017-Sep-17 11:30N 46°34' E 031°55'4 6.1
2017-Sep-17 10:56N 46°35' E 031°50'15 5.6
2017-Sep-17 08:16N 46°35' E 031°28'1 5.4
2017-Sep-17 08:00N 46°34' E 031°27'3 5.7
2017-Sep-17 07:30N 46°32' E 031°25'3 5.7
2017-Sep-17 07:00N 46°29' E 031°22'3 5.8
2017-Sep-17 06:30N 46°27' E 031°20'3 5.7
2017-Sep-17 06:00N 46°24' E 031°18'3 5.7
2017-Sep-17 05:30N 46°22' E 031°16'3 5.8
2017-Sep-17 05:00N 46°20' E 031°14'3 5.9
2017-Sep-17 04:30N 46°17' E 031°12'3 6.1
2017-Sep-17 04:00N 46°14' E 031°10'3 6.2
2017-Sep-17 03:30N 46°12' E 031°07'23 6.0
2017-Sep-16 23:42N 45°55' E 030°44'1 6.0
2017-Sep-16 23:30N 45°55' E 030°43'3 6.0
2017-Sep-16 23:00N 45°53' E 030°40'3 5.9
2017-Sep-16 22:29N 45°51' E 030°36'3 6.0
2017-Sep-16 21:59N 45°49' E 030°33'3 6.0
2017-Sep-16 21:30N 45°47' E 030°30'3 5.9
2017-Sep-16 21:00N 45°45' E 030°27'3 6.0
2017-Sep-16 20:30N 45°43' E 030°23'3 6.0
2017-Sep-16 20:00N 45°41' E 030°20'3 5.9
2017-Sep-16 19:30N 45°39' E 030°17'3 5.7
2017-Sep-16 19:00N 45°37' E 030°14'3 5.6
2017-Sep-16 18:30N 45°36' E 030°11'3 5.3
2017-Sep-16 18:00N 45°34' E 030°08'3 5.1
2017-Sep-16 17:30N 45°32' E 030°06'2 4.8
2017-Sep-16 17:00N 45°30' E 030°03'2 4.8
2017-Sep-16 16:30N 45°29' E 030°01'2 4.7
2017-Sep-16 16:00N 45°27' E 029°58'2 4.7
2017-Sep-16 15:30N 45°25' E 029°56'2 4.8
2017-Sep-16 15:00N 45°23' E 029°54'3 4.7
2017-Sep-16 14:24N 45°21' E 029°51'2 4.9
2017-Sep-16 14:00N 45°20' E 029°49'  
Track history (hours):
 
Tides and Currents Weather Stations Pressure Air Temp Water Temp Dewpoint Dewpoint Depression Visibility Wind Speed Wind Dir Waves Ship Positions

Svyataya Anna

Last reported at 2017-Sep-25 11:30 UTC. Time now 2017-Sep-25 11:52 UTC.
Position N 46°50' E 031°57'.

Length 93 m; draft 3.3 m.

Type: Cargo ship. MMSI: 272068800.

Date/timePositionNaut miles runAvg speedWind from/ knotsBaromVisibWave heightAir tempDewpointWater temp
2017-Sep-25 11:30N 46°50' E 031°57'0 0.0
2017-Sep-25 11:00N 46°50' E 031°57'0 0.0
2017-Sep-25 10:30N 46°50' E 031°57'0 0.0
2017-Sep-25 10:00N 46°50' E 031°57'0 0.0
2017-Sep-25 09:30N 46°50' E 031°57'0 0.0
2017-Sep-25 09:00N 46°50' E 031°57'0 0.0
2017-Sep-25 08:30N 46°50' E 031°57'0 0.0
2017-Sep-25 08:00N 46°50' E 031°57'0 0.0
2017-Sep-25 07:30N 46°50' E 031°57'0 0.0
2017-Sep-25 07:00N 46°50' E 031°57'0 0.0
2017-Sep-25 06:30N 46°50' E 031°57'0 0.0
2017-Sep-25 06:00N 46°50' E 031°57'0 0.0
2017-Sep-25 05:30N 46°50' E 031°57'0 0.0
2017-Sep-25 05:00N 46°50' E 031°57'0 0.0
2017-Sep-25 04:30N 46°50' E 031°57'0 0.0
2017-Sep-25 04:00N 46°50' E 031°57'0 0.7
2017-Sep-25 03:30N 46°50' E 031°57'1 1.0
2017-Sep-25 03:00N 46°50' E 031°56'0 0.6
2017-Sep-25 02:30N 46°50' E 031°56'2 3.1
2017-Sep-25 02:00N 46°49' E 031°54'2 3.1
2017-Sep-25 01:30N 46°48' E 031°53'2 3.1
2017-Sep-25 01:00N 46°46' E 031°53'1 2.7
2017-Sep-25 00:30N 46°45' E 031°54'1 2.7
2017-Sep-25 00:00N 46°44' E 031°56'1 2.3
2017-Sep-24 23:30N 46°43' E 031°56'1 2.8
2017-Sep-24 23:00N 46°41' E 031°56'2 3.2
2017-Sep-24 22:30N 46°40' E 031°56'2 3.1
2017-Sep-24 22:00N 46°38' E 031°57'2 3.3
2017-Sep-24 21:30N 46°37' E 031°58'2 3.4
2017-Sep-24 21:00N 46°36' E 032°00'2 3.6
2017-Sep-24 20:27N 46°34' E 032°02'  
2017-Sep-19 10:16N 48°04' E 035°05'2 6.0
2017-Sep-19 10:00N 48°02' E 035°07'3 5.3
2017-Sep-19 09:30N 47°60' E 035°08'3 5.7
2017-Sep-19 09:00N 47°57' E 035°07'3 5.5
2017-Sep-19 08:30N 47°54' E 035°07'3 5.2
2017-Sep-19 08:00N 47°52' E 035°06'0 0.1
2017-Sep-19 07:30N 47°52' E 035°05'0 0.2
2017-Sep-19 07:00N 47°52' E 035°05'2 3.7
2017-Sep-19 06:30N 47°50' E 035°06'3 5.0
2017-Sep-19 06:00N 47°48' E 035°09'0 0.0
2017-Sep-19 05:30N 47°48' E 035°09'0 0.0
2017-Sep-19 05:00N 47°48' E 035°09'0 0.0
2017-Sep-19 04:30N 47°48' E 035°09'0 0.0
2017-Sep-19 04:00N 47°48' E 035°09'0 0.0
2017-Sep-19 03:30N 47°48' E 035°09'0 0.0
2017-Sep-19 03:00N 47°48' E 035°09'0 0.0
2017-Sep-19 02:30N 47°48' E 035°09'0 0.0
2017-Sep-19 02:00N 47°48' E 035°09'0 0.0
2017-Sep-19 01:30N 47°48' E 035°09'0 0.0
2017-Sep-19 01:00N 47°48' E 035°09'0 0.0
2017-Sep-19 00:30N 47°48' E 035°09'1 1.1
2017-Sep-19 00:00N 47°48' E 035°10'3 5.2
2017-Sep-18 23:30N 47°45' E 035°10'2 4.9
2017-Sep-18 23:00N 47°43' E 035°09'3 5.2
2017-Sep-18 22:30N 47°41' E 035°07'3 5.4
2017-Sep-18 22:00N 47°38' E 035°06'3 5.8
2017-Sep-18 21:30N 47°36' E 035°03'80 5.0
2017-Sep-18 05:27N 46°49' E 033°27'2 5.2
2017-Sep-18 05:00N 46°48' E 033°24'5 1.7
2017-Sep-18 02:09N 46°45' E 033°18'1 4.6
2017-Sep-18 01:59N 46°45' E 033°17'3 5.4
2017-Sep-18 01:30N 46°46' E 033°14'53 3.9
2017-Sep-17 12:01N 46°33' E 031°59'0 6.2
2017-Sep-17 12:00N 46°33' E 031°59'3 6.1
2017-Sep-17 11:30N 46°34' E 031°55'4 6.1
2017-Sep-17 10:56N 46°35' E 031°50'15 5.6
2017-Sep-17 08:16N 46°35' E 031°28'1 5.4
2017-Sep-17 08:00N 46°34' E 031°27'3 5.7
2017-Sep-17 07:30N 46°32' E 031°25'3 5.7
2017-Sep-17 07:00N 46°29' E 031°22'3 5.8
2017-Sep-17 06:30N 46°27' E 031°20'3 5.7
2017-Sep-17 06:00N 46°24' E 031°18'3 5.7
2017-Sep-17 05:30N 46°22' E 031°16'3 5.8
2017-Sep-17 05:00N 46°20' E 031°14'3 5.9
2017-Sep-17 04:30N 46°17' E 031°12'3 6.1
2017-Sep-17 04:00N 46°14' E 031°10'3 6.2
2017-Sep-17 03:30N 46°12' E 031°07'23 6.0
2017-Sep-16 23:42N 45°55' E 030°44'1 6.0
2017-Sep-16 23:30N 45°55' E 030°43'3 6.0
2017-Sep-16 23:00N 45°53' E 030°40'3 5.9
2017-Sep-16 22:29N 45°51' E 030°36'3 6.0
2017-Sep-16 21:59N 45°49' E 030°33'3 6.0
2017-Sep-16 21:30N 45°47' E 030°30'3 5.9
2017-Sep-16 21:00N 45°45' E 030°27'3 6.0
2017-Sep-16 20:30N 45°43' E 030°23'3 6.0
2017-Sep-16 20:00N 45°41' E 030°20'3 5.9
2017-Sep-16 19:30N 45°39' E 030°17'3 5.7
2017-Sep-16 19:00N 45°37' E 030°14'3 5.6
2017-Sep-16 18:30N 45°36' E 030°11'3 5.3
2017-Sep-16 18:00N 45°34' E 030°08'3 5.1
2017-Sep-16 17:30N 45°32' E 030°06'2 4.8
2017-Sep-16 17:00N 45°30' E 030°03'2 4.8
2017-Sep-16 16:30N 45°29' E 030°01'2 4.7
2017-Sep-16 16:00N 45°27' E 029°58'2 4.7
2017-Sep-16 15:30N 45°25' E 029°56'2 4.8
2017-Sep-16 15:00N 45°23' E 029°54'3 4.7
2017-Sep-16 14:24N 45°21' E 029°51'2 4.9
2017-Sep-16 14:00N 45°20' E 029°49'  

Dump ship's entire track history